Huvudsida
METAR-TAF:

METAR-TAF

Flygplatser :

Fairbanks International Airport

Fairbanks, Alaska, USA

latitud: 64-48-14N, longitud: 147-52-34W, höjd: 132 m

Aktuellt väderrapport

Denna rapport gjordes för 15 minuter sedan, klockan 00:53 UTC
Vind 3 kt varierande vindriktning
Temperatur 27°C
Fuktighet 39%
Tryck 1023 hPa
Sikt: 16.1 km
Spridda moln på en höjd av 5000 ft
Spridda moln på en höjd av 20000 ft

METAR: PAFA 220053Z VRB03KT 10SM SCT050 SCT200 27/12 A3022 RMK AO2 SLP238 T02670117

Tid: 17:08 (01:08 UTC)

Väderprognos

Denna rapport gjordes för 1 timme och 48 minuter sedan, klockan 23:20 UTC
Prognos gäller från 22 kl. 00 UTC till 23 kl. 06 UTC
Vind 5 kt varierande vindriktning
Sikt: 10 km
Få moln på en höjd av 4000 ft
Spridda moln på en höjd av 9000 ft
Brutna moln på en höjd av 20000 ft

TAF: PAFA 212320Z 2200/2306 VRB05KT P6SM FEW040 SCT090 BKN200

Aktuella väderrapporter och prognoser från 4000 flygplatser (METAR- och TAF-rapporter).

De tillgängliga stationerna syns som gula och röda prickar på kartan.

För musen över prickarna för att se namnen på stationerna.

Klicka sedan för att få väderrapporter och prognoser.

För att ändra kartan: Klicka på de gröna knapparna med ett svart kors på för att zooma in; den gröna knappen med ett streck på för att zooma ut; eller på de gröna pilarna för angränsande kartor.


METAR-TAF: